sensor_id;sensor_type;location;lat;lon;timestamp;temperature;humidity
45785;DHT22;31489;51.404;5.474;2023-04-01T00:02:19;12.80;86.00
45785;DHT22;31489;51.404;5.474;2023-04-01T00:04:44;12.80;86.10
45785;DHT22;31489;51.404;5.474;2023-04-01T00:07:10;12.80;86.20
45785;DHT22;31489;51.404;5.474;2023-04-01T00:09:36;12.80;86.30
45785;DHT22;31489;51.404;5.474;2023-04-01T00:12:03;12.80;86.30
45785;DHT22;31489;51.404;5.474;2023-04-01T00:14:29;12.70;86.20
45785;DHT22;31489;51.404;5.474;2023-04-01T00:16:55;12.70;86.20
45785;DHT22;31489;51.404;5.474;2023-04-01T00:19:20;12.70;86.20
45785;DHT22;31489;51.404;5.474;2023-04-01T00:21:46;12.70;86.30
45785;DHT22;31489;51.404;5.474;2023-04-01T00:24:13;12.70;86.40
45785;DHT22;31489;51.404;5.474;2023-04-01T00:26:39;12.70;86.50
45785;DHT22;31489;51.404;5.474;2023-04-01T00:29:07;12.70;86.50
45785;DHT22;31489;51.404;5.474;2023-04-01T00:31:33;12.70;86.40
45785;DHT22;31489;51.404;5.474;2023-04-01T00:33:59;12.70;86.50
45785;DHT22;31489;51.404;5.474;2023-04-01T00:36:24;12.70;86.70
45785;DHT22;31489;51.404;5.474;2023-04-01T00:38:50;12.70;86.70
45785;DHT22;31489;51.404;5.474;2023-04-01T00:41:17;12.60;86.70
45785;DHT22;31489;51.404;5.474;2023-04-01T00:43:46;12.70;87.40
45785;DHT22;31489;51.404;5.474;2023-04-01T00:46:12;12.70;86.80
45785;DHT22;31489;51.404;5.474;2023-04-01T00:48:53;12.70;86.90
45785;DHT22;31489;51.404;5.474;2023-04-01T00:51:23;12.60;87.00
45785;DHT22;31489;51.404;5.474;2023-04-01T00:53:53;12.60;87.00
45785;DHT22;31489;51.404;5.474;2023-04-01T00:56:22;12.70;87.00
45785;DHT22;31489;51.404;5.474;2023-04-01T00:58:58;12.60;87.00
45785;DHT22;31489;51.404;5.474;2023-04-01T01:01:26;12.60;87.10
45785;DHT22;31489;51.404;5.474;2023-04-01T01:03:53;12.60;87.10
45785;DHT22;31489;51.404;5.474;2023-04-01T01:06:37;12.60;87.20
45785;DHT22;31489;51.404;5.474;2023-04-01T01:12:06;12.60;87.90
45785;DHT22;31489;51.404;5.474;2023-04-01T01:15:20;12.60;87.40
45785;DHT22;31489;51.404;5.474;2023-04-01T01:17:40;12.60;87.40
45785;DHT22;31489;51.404;5.474;2023-04-01T01:23:44;12.60;87.70
45785;DHT22;31489;51.404;5.474;2023-04-01T01:26:46;12.50;87.80
45785;DHT22;31489;51.404;5.474;2023-04-01T01:34:40;12.50;87.70
45785;DHT22;31489;51.404;5.474;2023-04-01T01:37:17;12.50;87.90
45785;DHT22;31489;51.404;5.474;2023-04-01T01:39:50;12.60;88.10
45785;DHT22;31489;51.404;5.474;2023-04-01T01:42:18;12.50;88.00
45785;DHT22;31489;51.404;5.474;2023-04-01T01:44:46;12.50;88.10
45785;DHT22;31489;51.404;5.474;2023-04-01T01:47:13;12.60;88.10
45785;DHT22;31489;51.404;5.474;2023-04-01T01:49:42;12.60;88.10
45785;DHT22;31489;51.404;5.474;2023-04-01T01:52:08;12.60;88.10
45785;DHT22;31489;51.404;5.474;2023-04-01T01:54:34;12.60;88.10
45785;DHT22;31489;51.404;5.474;2023-04-01T01:57:08;12.60;88.00
45785;DHT22;31489;51.404;5.474;2023-04-01T01:59:37;12.60;88.80
45785;DHT22;31489;51.404;5.474;2023-04-01T02:02:03;12.60;88.20
45785;DHT22;31489;51.404;5.474;2023-04-01T02:04:35;12.60;88.10
45785;DHT22;31489;51.404;5.474;2023-04-01T02:07:10;12.60;88.10
45785;DHT22;31489;51.404;5.474;2023-04-01T02:09:37;12.60;88.10
45785;DHT22;31489;51.404;5.474;2023-04-01T02:12:09;12.60;88.20
45785;DHT22;31489;51.404;5.474;2023-04-01T02:17:15;12.60;88.20
45785;DHT22;31489;51.404;5.474;2023-04-01T02:20:09;12.60;88.20
45785;DHT22;31489;51.404;5.474;2023-04-01T02:22:47;12.60;88.40
45785;DHT22;31489;51.404;5.474;2023-04-01T02:25:16;12.60;88.20
45785;DHT22;31489;51.404;5.474;2023-04-01T02:27:44;12.60;88.10
45785;DHT22;31489;51.404;5.474;2023-04-01T02:30:12;12.60;88.20
45785;DHT22;31489;51.404;5.474;2023-04-01T02:32:39;12.60;88.30
45785;DHT22;31489;51.404;5.474;2023-04-01T02:35:07;12.60;88.30
45785;DHT22;31489;51.404;5.474;2023-04-01T02:37:34;12.60;88.30
45785;DHT22;31489;51.404;5.474;2023-04-01T02:40:04;12.60;88.40
45785;DHT22;31489;51.404;5.474;2023-04-01T02:42:32;12.60;88.30
45785;DHT22;31489;51.404;5.474;2023-04-01T02:44:57;12.60;88.20
45785;DHT22;31489;51.404;5.474;2023-04-01T02:47:23;12.60;88.30
45785;DHT22;31489;51.404;5.474;2023-04-01T02:49:48;12.60;88.40
45785;DHT22;31489;51.404;5.474;2023-04-01T02:52:14;12.70;88.50
45785;DHT22;31489;51.404;5.474;2023-04-01T02:54:40;12.60;88.40
45785;DHT22;31489;51.404;5.474;2023-04-01T02:57:06;12.70;88.40
45785;DHT22;31489;51.404;5.474;2023-04-01T02:59:31;12.70;88.30
45785;DHT22;31489;51.404;5.474;2023-04-01T03:01:57;12.70;88.30
45785;DHT22;31489;51.404;5.474;2023-04-01T03:04:23;12.70;88.20
45785;DHT22;31489;51.404;5.474;2023-04-01T03:06:48;12.70;88.20
45785;DHT22;31489;51.404;5.474;2023-04-01T03:09:15;12.70;88.20
45785;DHT22;31489;51.404;5.474;2023-04-01T03:11:41;12.70;88.00
45785;DHT22;31489;51.404;5.474;2023-04-01T03:14:06;12.70;88.00
45785;DHT22;31489;51.404;5.474;2023-04-01T03:16:32;12.60;87.90
45785;DHT22;31489;51.404;5.474;2023-04-01T03:18:58;12.60;87.90
45785;DHT22;31489;51.404;5.474;2023-04-01T03:21:25;12.60;88.00
45785;DHT22;31489;51.404;5.474;2023-04-01T03:23:51;12.60;88.10
45785;DHT22;31489;51.404;5.474;2023-04-01T03:26:17;12.60;88.30
45785;DHT22;31489;51.404;5.474;2023-04-01T03:28:43;12.60;88.40
45785;DHT22;31489;51.404;5.474;2023-04-01T03:31:09;12.60;88.50
45785;DHT22;31489;51.404;5.474;2023-04-01T03:33:35;12.60;88.40
45785;DHT22;31489;51.404;5.474;2023-04-01T03:36:00;12.60;88.30
45785;DHT22;31489;51.404;5.474;2023-04-01T03:38:26;12.60;88.20
45785;DHT22;31489;51.404;5.474;2023-04-01T03:40:52;12.60;88.30
45785;DHT22;31489;51.404;5.474;2023-04-01T03:43:17;12.50;88.20
45785;DHT22;31489;51.404;5.474;2023-04-01T03:45:45;12.50;88.30
45785;DHT22;31489;51.404;5.474;2023-04-01T03:48:10;12.50;88.30
45785;DHT22;31489;51.404;5.474;2023-04-01T03:50:39;12.50;88.40
45785;DHT22;31489;51.404;5.474;2023-04-01T03:53:05;12.50;88.50
45785;DHT22;31489;51.404;5.474;2023-04-01T03:55:30;12.50;88.50
45785;DHT22;31489;51.404;5.474;2023-04-01T03:57:56;12.50;88.50
45785;DHT22;31489;51.404;5.474;2023-04-01T04:00:22;12.50;88.50
45785;DHT22;31489;51.404;5.474;2023-04-01T04:02:47;12.40;88.60
45785;DHT22;31489;51.404;5.474;2023-04-01T04:05:13;12.40;88.60
45785;DHT22;31489;51.404;5.474;2023-04-01T04:07:39;12.40;88.60
45785;DHT22;31489;51.404;5.474;2023-04-01T04:10:05;12.50;88.70
45785;DHT22;31489;51.404;5.474;2023-04-01T04:12:32;12.40;88.60
45785;DHT22;31489;51.404;5.474;2023-04-01T04:14:57;12.50;88.70
45785;DHT22;31489;51.404;5.474;2023-04-01T04:17:23;12.40;88.60
45785;DHT22;31489;51.404;5.474;2023-04-01T04:19:48;12.50;88.70
45785;DHT22;31489;51.404;5.474;2023-04-01T04:22:14;12.40;88.70
45785;DHT22;31489;51.404;5.474;2023-04-01T04:24:40;12.40;88.50
45785;DHT22;31489;51.404;5.474;2023-04-01T04:27:05;12.40;88.30
45785;DHT22;31489;51.404;5.474;2023-04-01T04:29:31;12.40;88.30
45785;DHT22;31489;51.404;5.474;2023-04-01T04:31:57;12.40;88.40
45785;DHT22;31489;51.404;5.474;2023-04-01T04:34:22;12.40;88.40
45785;DHT22;31489;51.404;5.474;2023-04-01T04:36:48;12.40;88.30
45785;DHT22;31489;51.404;5.474;2023-04-01T04:39:14;12.40;88.40
45785;DHT22;31489;51.404;5.474;2023-04-01T04:41:40;12.40;88.40
45785;DHT22;31489;51.404;5.474;2023-04-01T04:44:06;12.30;88.30
45785;DHT22;31489;51.404;5.474;2023-04-01T04:46:32;12.30;88.50
45785;DHT22;31489;51.404;5.474;2023-04-01T04:48:58;12.40;88.60
45785;DHT22;31489;51.404;5.474;2023-04-01T04:51:23;12.30;88.50
45785;DHT22;31489;51.404;5.474;2023-04-01T04:53:50;12.30;88.50
45785;DHT22;31489;51.404;5.474;2023-04-01T04:56:20;12.30;88.60
45785;DHT22;31489;51.404;5.474;2023-04-01T04:58:46;12.30;88.70
45785;DHT22;31489;51.404;5.474;2023-04-01T05:01:14;12.30;88.70
45785;DHT22;31489;51.404;5.474;2023-04-01T05:03:40;12.30;88.50
45785;DHT22;31489;51.404;5.474;2023-04-01T05:06:07;12.30;88.60
45785;DHT22;31489;51.404;5.474;2023-04-01T05:08:33;12.30;88.60
45785;DHT22;31489;51.404;5.474;2023-04-01T05:11:00;12.20;88.50
45785;DHT22;31489;51.404;5.474;2023-04-01T05:13:26;12.30;88.60
45785;DHT22;31489;51.404;5.474;2023-04-01T05:15:52;12.30;88.60
45785;DHT22;31489;51.404;5.474;2023-04-01T05:18:18;12.20;88.50
45785;DHT22;31489;51.404;5.474;2023-04-01T05:20:52;12.30;88.50
45785;DHT22;31489;51.404;5.474;2023-04-01T05:23:19;12.20;88.50
45785;DHT22;31489;51.404;5.474;2023-04-01T05:25:47;12.20;88.60
45785;DHT22;31489;51.404;5.474;2023-04-01T05:28:13;12.20;88.70
45785;DHT22;31489;51.404;5.474;2023-04-01T05:30:42;12.20;88.80
45785;DHT22;31489;51.404;5.474;2023-04-01T05:33:10;12.20;88.90
45785;DHT22;31489;51.404;5.474;2023-04-01T05:35:36;12.20;88.80
45785;DHT22;31489;51.404;5.474;2023-04-01T05:38:03;12.20;88.80
45785;DHT22;31489;51.404;5.474;2023-04-01T05:40:29;12.20;88.80
45785;DHT22;31489;51.404;5.474;2023-04-01T05:42:55;12.20;88.80
45785;DHT22;31489;51.404;5.474;2023-04-01T05:45:21;12.20;88.80
45785;DHT22;31489;51.404;5.474;2023-04-01T05:47:47;12.20;88.80
45785;DHT22;31489;51.404;5.474;2023-04-01T05:50:13;12.10;88.80
45785;DHT22;31489;51.404;5.474;2023-04-01T05:52:38;12.10;88.60
45785;DHT22;31489;51.404;5.474;2023-04-01T05:55:05;12.10;88.80
45785;DHT22;31489;51.404;5.474;2023-04-01T05:57:31;12.10;88.90
45785;DHT22;31489;51.404;5.474;2023-04-01T05:59:56;12.10;89.00
45785;DHT22;31489;51.404;5.474;2023-04-01T06:02:23;12.10;88.90
45785;DHT22;31489;51.404;5.474;2023-04-01T06:04:49;12.10;88.90
45785;DHT22;31489;51.404;5.474;2023-04-01T06:07:19;12.10;88.90
45785;DHT22;31489;51.404;5.474;2023-04-01T06:09:45;12.10;88.80
45785;DHT22;31489;51.404;5.474;2023-04-01T06:15:27;12.10;89.00
45785;DHT22;31489;51.404;5.474;2023-04-01T06:18:18;12.10;89.10
45785;DHT22;31489;51.404;5.474;2023-04-01T06:23:52;12.10;89.10
45785;DHT22;31489;51.404;5.474;2023-04-01T06:26:33;12.10;89.00
45785;DHT22;31489;51.404;5.474;2023-04-01T06:29:05;12.10;89.10
45785;DHT22;31489;51.404;5.474;2023-04-01T06:40:06;12.10;89.40
45785;DHT22;31489;51.404;5.474;2023-04-01T06:45:41;12.10;89.30
45785;DHT22;31489;51.404;5.474;2023-04-01T06:56:10;12.10;89.40
45785;DHT22;31489;51.404;5.474;2023-04-01T06:58:41;12.10;89.50
45785;DHT22;31489;51.404;5.474;2023-04-01T07:01:11;12.10;89.50
45785;DHT22;31489;51.404;5.474;2023-04-01T07:03:53;12.10;90.00
45785;DHT22;31489;51.404;5.474;2023-04-01T07:09:21;12.20;89.70
45785;DHT22;31489;51.404;5.474;2023-04-01T07:11:48;12.20;89.70
45785;DHT22;31489;51.404;5.474;2023-04-01T07:14:26;12.20;89.80
45785;DHT22;31489;51.404;5.474;2023-04-01T07:17:00;12.20;89.90
45785;DHT22;31489;51.404;5.474;2023-04-01T07:24:43;12.30;89.70
45785;DHT22;31489;51.404;5.474;2023-04-01T07:27:11;12.30;89.80
45785;DHT22;31489;51.404;5.474;2023-04-01T07:29:37;12.30;89.80
45785;DHT22;31489;51.404;5.474;2023-04-01T07:35:04;12.40;89.90
45785;DHT22;31489;51.404;5.474;2023-04-01T07:46:03;12.50;89.80
45785;DHT22;31489;51.404;5.474;2023-04-01T07:48:40;12.50;89.90
45785;DHT22;31489;51.404;5.474;2023-04-01T07:51:16;12.50;89.80
45785;DHT22;31489;51.404;5.474;2023-04-01T07:54:00;12.50;89.90
45785;DHT22;31489;51.404;5.474;2023-04-01T08:02:25;12.60;89.80
45785;DHT22;31489;51.404;5.474;2023-04-01T08:10:34;12.70;89.90
45785;DHT22;31489;51.404;5.474;2023-04-01T08:13:13;12.70;90.00
45785;DHT22;31489;51.404;5.474;2023-04-01T08:21:03;12.90;90.00
45785;DHT22;31489;51.404;5.474;2023-04-01T08:23:33;13.00;90.00
45785;DHT22;31489;51.404;5.474;2023-04-01T08:26:06;13.00;89.80
45785;DHT22;31489;51.404;5.474;2023-04-01T08:28:46;13.00;89.60
45785;DHT22;31489;51.404;5.474;2023-04-01T08:33:53;13.00;89.00
45785;DHT22;31489;51.404;5.474;2023-04-01T08:36:32;13.10;89.10
45785;DHT22;31489;51.404;5.474;2023-04-01T08:39:04;13.10;89.10
45785;DHT22;31489;51.404;5.474;2023-04-01T08:44:34;13.10;89.50
45785;DHT22;31489;51.404;5.474;2023-04-01T08:47:20;13.20;89.50
45785;DHT22;31489;51.404;5.474;2023-04-01T08:56:02;13.40;89.60
45785;DHT22;31489;51.404;5.474;2023-04-01T08:58:39;13.50;89.50
45785;DHT22;31489;51.404;5.474;2023-04-01T09:04:25;13.60;88.70
45785;DHT22;31489;51.404;5.474;2023-04-01T09:06:57;13.70;88.60
45785;DHT22;31489;51.404;5.474;2023-04-01T09:09:36;13.70;88.70
45785;DHT22;31489;51.404;5.474;2023-04-01T09:15:35;13.80;87.70
45785;DHT22;31489;51.404;5.474;2023-04-01T09:20:57;13.80;88.00
45785;DHT22;31489;51.404;5.474;2023-04-01T09:26:35;13.80;87.60
45785;DHT22;31489;51.404;5.474;2023-04-01T09:37:41;13.70;86.80
45785;DHT22;31489;51.404;5.474;2023-04-01T09:46:38;13.60;87.10
45785;DHT22;31489;51.404;5.474;2023-04-01T09:49:37;13.60;87.30
45785;DHT22;31489;51.404;5.474;2023-04-01T10:00:55;13.50;87.90
45785;DHT22;31489;51.404;5.474;2023-04-01T10:15:26;13.40;88.30
45785;DHT22;31489;51.404;5.474;2023-04-01T10:26:32;13.30;88.10
45785;DHT22;31489;51.404;5.474;2023-04-01T10:35:45;13.40;88.00
45785;DHT22;31489;51.404;5.474;2023-04-01T10:39:20;13.40;87.90
45785;DHT22;31489;51.404;5.474;2023-04-01T11:01:03;13.40;87.20
45785;DHT22;31489;51.404;5.474;2023-04-01T11:09:30;13.40;87.60
45785;DHT22;31489;51.404;5.474;2023-04-01T11:14:38;13.40;87.50
45785;DHT22;31489;51.404;5.474;2023-04-01T11:29:03;13.40;87.50
45785;DHT22;31489;51.404;5.474;2023-04-01T11:39:27;13.40;87.50
45785;DHT22;31489;51.404;5.474;2023-04-01T11:48:08;13.50;87.40
45785;DHT22;31489;51.404;5.474;2023-04-01T12:12:20;13.50;87.40
45785;DHT22;31489;51.404;5.474;2023-04-01T12:20:49;13.50;87.40
45785;DHT22;31489;51.404;5.474;2023-04-01T12:32:34;13.40;87.80
45785;DHT22;31489;51.404;5.474;2023-04-01T12:35:19;13.40;87.80
45785;DHT22;31489;51.404;5.474;2023-04-01T12:41:13;13.40;88.40
45785;DHT22;31489;51.404;5.474;2023-04-01T12:46:29;13.40;88.70
45785;DHT22;31489;51.404;5.474;2023-04-01T12:54:45;13.50;88.60
45785;DHT22;31489;51.404;5.474;2023-04-01T13:05:25;13.50;88.60
45785;DHT22;31489;51.404;5.474;2023-04-01T13:08:04;13.50;88.90
45785;DHT22;31489;51.404;5.474;2023-04-01T13:16:19;13.50;88.60
45785;DHT22;31489;51.404;5.474;2023-04-01T13:38:30;13.50;88.60
45785;DHT22;31489;51.404;5.474;2023-04-01T13:44:11;13.50;88.90
45785;DHT22;31489;51.404;5.474;2023-04-01T13:49:33;13.50;89.00
45785;DHT22;31489;51.404;5.474;2023-04-01T14:14:41;13.50;88.50
45785;DHT22;31489;51.404;5.474;2023-04-01T14:20:56;13.40;88.80
45785;DHT22;31489;51.404;5.474;2023-04-01T14:40:40;13.40;88.60
45785;DHT22;31489;51.404;5.474;2023-04-01T14:48:56;13.40;89.00
45785;DHT22;31489;51.404;5.474;2023-04-01T14:51:37;13.30;89.00
45785;DHT22;31489;51.404;5.474;2023-04-01T14:54:21;13.30;89.00
45785;DHT22;31489;51.404;5.474;2023-04-01T14:56:50;13.30;88.60
45785;DHT22;31489;51.404;5.474;2023-04-01T15:01:57;13.30;88.90
45785;DHT22;31489;51.404;5.474;2023-04-01T15:12:59;13.30;89.10
45785;DHT22;31489;51.404;5.474;2023-04-01T15:30:02;13.20;89.40
45785;DHT22;31489;51.404;5.474;2023-04-01T15:35:34;13.20;89.30
45785;DHT22;31489;51.404;5.474;2023-04-01T15:51:20;13.20;90.10
45785;DHT22;31489;51.404;5.474;2023-04-01T15:54:25;13.20;89.60
45785;DHT22;31489;51.404;5.474;2023-04-01T15:57:15;13.20;89.70
45785;DHT22;31489;51.404;5.474;2023-04-01T16:14:39;13.30;89.20
45785;DHT22;31489;51.404;5.474;2023-04-01T16:17:30;13.20;89.10
45785;DHT22;31489;51.404;5.474;2023-04-01T16:20:19;13.20;89.10
45785;DHT22;31489;51.404;5.474;2023-04-01T16:25:33;13.20;89.10
45785;DHT22;31489;51.404;5.474;2023-04-01T16:30:48;13.20;89.10
45785;DHT22;31489;51.404;5.474;2023-04-01T16:41:24;13.20;89.30
45785;DHT22;31489;51.404;5.474;2023-04-01T16:46:50;13.20;89.10
45785;DHT22;31489;51.404;5.474;2023-04-01T16:49:32;13.10;89.10
45785;DHT22;31489;51.404;5.474;2023-04-01T16:57:42;13.10;89.40
45785;DHT22;31489;51.404;5.474;2023-04-01T17:00:28;13.10;89.50
45785;DHT22;31489;51.404;5.474;2023-04-01T17:11:31;13.10;89.50
45785;DHT22;31489;51.404;5.474;2023-04-01T17:14:23;13.10;89.60
45785;DHT22;31489;51.404;5.474;2023-04-01T17:17:19;13.10;89.60
45785;DHT22;31489;51.404;5.474;2023-04-01T17:22:46;13.10;89.60
45785;DHT22;31489;51.404;5.474;2023-04-01T17:28:10;13.20;89.70
45785;DHT22;31489;51.404;5.474;2023-04-01T17:35:58;13.10;89.70
45785;DHT22;31489;51.404;5.474;2023-04-01T17:38:37;13.20;89.60
45785;DHT22;31489;51.404;5.474;2023-04-01T17:49:31;13.10;90.00
45785;DHT22;31489;51.404;5.474;2023-04-01T18:06:14;13.20;90.20
45785;DHT22;31489;51.404;5.474;2023-04-01T18:08:59;13.20;90.30
45785;DHT22;31489;51.404;5.474;2023-04-01T18:11:34;13.30;90.30
45785;DHT22;31489;51.404;5.474;2023-04-01T18:22:57;13.40;90.30
45785;DHT22;31489;51.404;5.474;2023-04-01T18:25:40;13.50;90.30
45785;DHT22;31489;51.404;5.474;2023-04-01T18:36:50;13.60;90.10
45785;DHT22;31489;51.404;5.474;2023-04-01T18:39:22;13.70;90.10
45785;DHT22;31489;51.404;5.474;2023-04-01T18:42:08;13.70;90.10
45785;DHT22;31489;51.404;5.474;2023-04-01T18:44:48;13.70;90.00
45785;DHT22;31489;51.404;5.474;2023-04-01T18:47:34;13.70;90.00
45785;DHT22;31489;51.404;5.474;2023-04-01T18:56:03;13.80;90.00
45785;DHT22;31489;51.404;5.474;2023-04-01T18:58:35;13.80;89.90
45785;DHT22;31489;51.404;5.474;2023-04-01T19:03:55;13.80;89.80
45785;DHT22;31489;51.404;5.474;2023-04-01T19:06:35;13.80;89.40
45785;DHT22;31489;51.404;5.474;2023-04-01T19:09:17;13.80;89.40
45785;DHT22;31489;51.404;5.474;2023-04-01T19:12:05;13.80;89.30
45785;DHT22;31489;51.404;5.474;2023-04-01T19:22:53;13.80;89.00
45785;DHT22;31489;51.404;5.474;2023-04-01T19:25:46;13.80;89.00
45785;DHT22;31489;51.404;5.474;2023-04-01T19:33:52;13.70;88.50
45785;DHT22;31489;51.404;5.474;2023-04-01T19:36:50;13.70;88.90
45785;DHT22;31489;51.404;5.474;2023-04-01T19:50:42;13.60;88.00
45785;DHT22;31489;51.404;5.474;2023-04-01T19:59:02;13.60;87.80
45785;DHT22;31489;51.404;5.474;2023-04-01T20:01:52;13.60;87.50
45785;DHT22;31489;51.404;5.474;2023-04-01T20:04:28;13.60;87.30
45785;DHT22;31489;51.404;5.474;2023-04-01T20:06:57;13.60;87.50
45785;DHT22;31489;51.404;5.474;2023-04-01T20:17:48;13.40;87.80
45785;DHT22;31489;51.404;5.474;2023-04-01T20:20:23;13.50;87.70
45785;DHT22;31489;51.404;5.474;2023-04-01T20:23:06;13.40;87.30
45785;DHT22;31489;51.404;5.474;2023-04-01T20:25:48;13.40;87.00
45785;DHT22;31489;51.404;5.474;2023-04-01T20:44:11;13.30;86.90
45785;DHT22;31489;51.404;5.474;2023-04-01T21:00:31;13.20;86.40
45785;DHT22;31489;51.404;5.474;2023-04-01T21:03:38;13.20;86.20
45785;DHT22;31489;51.404;5.474;2023-04-01T21:06:18;13.20;86.40
45785;DHT22;31489;51.404;5.474;2023-04-01T21:16:19;13.10;86.80
45785;DHT22;31489;51.404;5.474;2023-04-01T21:19:02;13.10;86.80
45785;DHT22;31489;51.404;5.474;2023-04-01T21:24:56;13.10;86.70
45785;DHT22;31489;51.404;5.474;2023-04-01T21:30:43;13.00;86.40
45785;DHT22;31489;51.404;5.474;2023-04-01T21:33:41;13.00;86.10
45785;DHT22;31489;51.404;5.474;2023-04-01T21:36:15;13.00;86.30
45785;DHT22;31489;51.404;5.474;2023-04-01T22:03:25;12.90;86.50
45785;DHT22;31489;51.404;5.474;2023-04-01T22:08:46;12.80;85.90
45785;DHT22;31489;51.404;5.474;2023-04-01T22:11:25;12.80;85.50
45785;DHT22;31489;51.404;5.474;2023-04-01T22:19:28;12.80;85.80
45785;DHT22;31489;51.404;5.474;2023-04-01T22:30:04;12.80;85.00
45785;DHT22;31489;51.404;5.474;2023-04-01T22:32:42;12.70;84.90
45785;DHT22;31489;51.404;5.474;2023-04-01T22:38:16;12.70;85.10
45785;DHT22;31489;51.404;5.474;2023-04-01T22:40:54;12.60;85.20
45785;DHT22;31489;51.404;5.474;2023-04-01T22:43:39;12.70;85.20
45785;DHT22;31489;51.404;5.474;2023-04-01T22:48:50;12.60;85.40
45785;DHT22;31489;51.404;5.474;2023-04-01T22:51:38;12.60;85.20
45785;DHT22;31489;51.404;5.474;2023-04-01T22:54:15;12.60;85.20
45785;DHT22;31489;51.404;5.474;2023-04-01T22:57:08;12.60;85.20
45785;DHT22;31489;51.404;5.474;2023-04-01T23:00:12;12.60;84.80
45785;DHT22;31489;51.404;5.474;2023-04-01T23:02:46;12.60;84.70
45785;DHT22;31489;51.404;5.474;2023-04-01T23:05:16;12.50;85.00
45785;DHT22;31489;51.404;5.474;2023-04-01T23:10:56;12.50;84.70
45785;DHT22;31489;51.404;5.474;2023-04-01T23:13:31;12.50;84.70
45785;DHT22;31489;51.404;5.474;2023-04-01T23:15:57;12.40;84.80
45785;DHT22;31489;51.404;5.474;2023-04-01T23:18:29;12.40;85.00
45785;DHT22;31489;51.404;5.474;2023-04-01T23:21:26;12.40;84.80
45785;DHT22;31489;51.404;5.474;2023-04-01T23:24:19;12.40;84.40
45785;DHT22;31489;51.404;5.474;2023-04-01T23:29:29;12.30;84.30
45785;DHT22;31489;51.404;5.474;2023-04-01T23:32:03;12.30;84.80
45785;DHT22;31489;51.404;5.474;2023-04-01T23:34:35;12.30;84.50
45785;DHT22;31489;51.404;5.474;2023-04-01T23:37:09;12.40;84.70
45785;DHT22;31489;51.404;5.474;2023-04-01T23:39:40;12.30;84.40
45785;DHT22;31489;51.404;5.474;2023-04-01T23:42:21;12.30;84.60
45785;DHT22;31489;51.404;5.474;2023-04-01T23:44:57;12.30;84.20
45785;DHT22;31489;51.404;5.474;2023-04-01T23:47:38;12.30;84.40
45785;DHT22;31489;51.404;5.474;2023-04-01T23:50:14;12.30;84.20
45785;DHT22;31489;51.404;5.474;2023-04-01T23:52:52;12.30;84.20
45785;DHT22;31489;51.404;5.474;2023-04-01T23:55:29;12.20;84.20
